Allyn, Washington
Current Conditions -  °F | °C
As of 8:15 AM on Saturday 25 Oct 2014 (Local Time) from KPWT Reporting Station
Overcast Overcast  
Wind Chill:   Ceiling: 5000
Heat Index:   Visibility: 10mi
Dew Point:   Wind: 3mph
Humidity: 100%   Direction: 220°SW
Pressure: 29.56"   Gusts: NA
Location:  47.39°N, 122.83°W
Report Text: KPWT 251515Z AUTO 22003KT 10SM SCT048 BKN050 OVC070 09/09 A2956 RMK AO1 P0001
Loading
Personal Weather Stations






























Interactive Weather Map
Tropical Storm Tracking
New forecast layout! Learn more

10-Day Weather Forecast

Advertisements
Track Severe Weather on mobile